Time;durP1;ratioP1;P1;durP2;ratioP2;P2;SDS_P1;SDS_P2;PMS_P1;PMS_P2;Temp;Humidity;BMP_temperature;BMP_pressure;BME280_temperature;BME280_humidity;BME280_pressure;Samples;Min_cycle;Max_cycle;Signal;HPM_P1;HPM_P2
2022/12/04 00:00:13;;;;;;;124.80;39.30;;;;;;;0.53;85.66;101462.30;106783;1236;99049;-66
2022/12/04 00:02:39;;;;;;;125.80;43.20;;;;;;;0.54;85.77;101458.64;106814;1230;139462;-67
2022/12/04 00:05:06;;;;;;;128.40;40.30;;;;;;;0.56;85.92;101457.26;106816;1236;102823;-66
2022/12/04 00:07:31;;;;;;;114.30;39.90;;;;;;;0.58;85.90;101453.05;106828;1237;100478;-66
2022/12/04 00:09:56;;;;;;;125.40;41.50;;;;;;;0.59;85.92;101447.61;106759;1237;139613;-66
2022/12/04 00:12:22;;;;;;;127.80;45.10;;;;;;;0.61;85.88;101450.44;106822;1237;99435;-67
2022/12/04 00:14:49;;;;;;;133.40;42.10;;;;;;;0.62;85.98;101447.64;106807;1237;139108;-67
2022/12/04 00:17:14;;;;;;;114.00;37.60;;;;;;;0.62;85.88;101443.23;106820;1236;99020;-67
2022/12/04 00:19:39;;;;;;;106.10;37.10;;;;;;;0.61;85.93;101449.05;106752;1236;140620;-67
2022/12/04 00:22:05;;;;;;;113.30;37.90;;;;;;;0.60;85.90;101446.91;106841;1235;98953;-70
2022/12/04 00:24:30;;;;;;;117.20;38.30;;;;;;;0.58;85.81;101446.20;106886;1252;99818;-68
2022/12/04 00:26:55;;;;;;;124.10;38.80;;;;;;;0.59;85.99;101442.86;106792;1236;139748;-68
2022/12/04 00:29:21;;;;;;;125.50;40.20;;;;;;;0.61;85.94;101442.18;106881;1246;99064;-68
2022/12/04 00:31:47;;;;;;;108.00;39.40;;;;;;;0.63;86.05;101444.31;106727;1246;138972;-68
2022/12/04 00:34:12;;;;;;;124.10;38.70;;;;;;;0.65;86.02;101452.23;106889;1242;99084;-68
2022/12/04 00:36:37;;;;;;;114.30;39.60;;;;;;;0.65;86.13;101445.73;106866;1237;98971;-68
2022/12/04 00:39:04;;;;;;;113.50;37.70;;;;;;;0.65;86.03;101440.28;106769;1234;139228;-66
2022/12/04 00:41:31;;;;;;;127.30;40.80;;;;;;;0.64;86.16;101438.16;106930;1248;111883;-66
2022/12/04 00:43:57;;;;;;;112.90;39.00;;;;;;;0.64;86.15;101438.33;106744;1256;140586;-67
2022/12/04 00:46:22;;;;;;;110.30;37.20;;;;;;;0.66;86.27;101433.08;106937;1253;99647;-67
2022/12/04 00:48:49;;;;;;;116.60;38.40;;;;;;;0.66;86.15;101435.37;106854;1243;99056;-67
2022/12/04 00:51:17;;;;;;;122.80;40.20;;;;;;;0.67;86.38;101431.34;106711;1245;138867;-68
2022/12/04 00:53:43;;;;;;;114.40;40.10;;;;;;;0.70;86.32;101434.70;106905;1261;99977;-68
2022/12/04 00:56:13;;;;;;;126.00;42.30;;;;;;;0.71;86.50;101433.30;106788;1251;139503;-69
2022/12/04 00:58:38;;;;;;;132.60;43.20;;;;;;;0.72;86.29;101431.91;106892;1234;99037;-71
2022/12/04 01:01:07;;;;;;;164.00;46.50;;;;;;;0.73;86.46;101435.08;106812;1238;99019;-71
2022/12/04 01:03:34;;;;;;;156.50;45.40;;;;;;;0.75;86.49;101436.34;106719;1244;140300;-73
2022/12/04 01:06:06;;;;;;;159.80;44.50;;;;;;;0.77;86.52;101432.13;106986;1250;98913;-73
2022/12/04 01:08:32;;;;;;;176.60;49.30;;;;;;;0.78;86.41;101428.27;107045;1259;138836;-74
2022/12/04 01:10:58;;;;;;;171.40;48.30;;;;;;;0.78;86.52;101430.20;107149;1249;99085;-74
2022/12/04 01:13:24;;;;;;;177.10;51.00;;;;;;;0.81;86.62;101426.71;107249;1251;99014;-73
2022/12/04 01:15:50;;;;;;;179.40;50.40;;;;;;;0.82;86.51;101432.70;107090;1242;139649;-74
2022/12/04 01:18:16;;;;;;;182.70;50.60;;;;;;;0.81;86.60;101429.88;107147;1249;98953;-74
2022/12/04 01:20:49;;;;;;;203.70;54.60;;;;;;;0.83;86.74;101429.02;107171;1255;139436;-74
2022/12/04 01:23:16;;;;;;;211.60;54.10;;;;;;;0.86;86.82;101428.51;107195;1257;99439;-74
2022/12/04 01:25:50;;;;;;;213.60;57.90;;;;;;;0.87;86.88;101427.99;107166;1237;138947;-73
2022/12/04 01:28:15;;;;;;;200.80;55.60;;;;;;;0.87;86.89;101423.08;107196;1252;99474;-69
2022/12/04 01:30:40;;;;;;;209.70;54.70;;;;;;;0.88;86.88;101429.59;107256;1249;98960;-70
2022/12/04 01:33:05;;;;;;;193.00;50.60;;;;;;;0.89;86.94;101431.71;107159;1256;141011;-69
2022/12/04 01:35:31;;;;;;;221.20;59.50;;;;;;;0.90;87.04;101431.38;107165;1249;99378;-70
2022/12/04 01:37:56;;;;;;;222.10;59.80;;;;;;;0.92;87.23;101426.45;107135;1254;140183;-69
2022/12/04 01:40:21;;;;;;;215.50;56.20;;;;;;;0.93;87.12;101427.34;107217;1251;99061;-69
2022/12/04 01:42:47;;;;;;;220.40;58.30;;;;;;;0.92;87.15;101427.69;107298;1253;98945;-69
2022/12/04 01:45:43;;;;;;;247.80;61.20;;;;;;;0.92;87.33;101435.25;107156;1250;139049;-69
2022/12/04 01:48:13;;;;;;;253.10;61.10;;;;;;;0.94;87.37;101430.70;107173;1250;108105;-70
2022/12/04 01:50:41;;;;;;;249.70;58.00;;;;;;;0.95;87.45;101426.48;107134;1254;139527;-70
2022/12/04 01:53:07;;;;;;;236.50;58.00;;;;;;;0.97;87.41;101427.90;107233;1258;100036;-69
2022/12/04 01:55:33;;;;;;;237.90;59.60;;;;;;;0.95;87.46;101424.73;107330;1254;99021;-70
2022/12/04 01:58:01;;;;;;;239.00;57.50;;;;;;;0.95;87.62;101422.44;107078;1253;139544;-69
2022/12/04 02:00:26;;;;;;;229.20;57.60;;;;;;;0.95;87.51;101418.39;106957;1237;99267;-68
2022/12/04 02:02:51;;;;;;;231.60;55.80;;;;;;;0.96;87.60;101420.51;106812;1249;139883;-70
2022/12/04 02:05:20;;;;;;;255.60;57.50;;;;;;;0.96;87.62;101422.97;106883;1255;98962;-69
2022/12/04 02:07:49;;;;;;;234.40;58.50;;;;;;;0.96;87.69;101429.30;106725;1243;140470;-69
2022/12/04 02:10:23;;;;;;;245.10;62.30;;;;;;;0.96;87.68;101423.50;106801;1253;107998;-69
2022/12/04 02:13:06;;;;;;;248.60;59.00;;;;;;;0.98;87.77;101418.23;106871;1251;99109;-69
2022/12/04 02:15:40;;;;;;;244.80;57.30;;;;;;;1.00;87.95;101415.61;106992;1241;139039;-69
2022/12/04 02:18:17;;;;;;;250.70;57.40;;;;;;;1.02;88.05;101412.63;107193;1256;112483;-69
2022/12/04 02:20:55;;;;;;;239.00;59.70;;;;;;;1.01;88.02;101409.63;107132;1249;140119;-69
2022/12/04 02:23:32;;;;;;;238.20;54.70;;;;;;;1.00;88.10;101406.46;107212;1247;109275;-69
2022/12/04 02:26:15;;;;;;;245.40;59.40;;;;;;;0.99;88.10;101400.99;106940;1246;139555;-70
2022/12/04 02:28:50;;;;;;;244.50;60.00;;;;;;;0.97;88.25;101395.35;107225;1237;99036;-70
2022/12/04 02:31:21;;;;;;;236.10;55.90;;;;;;;0.99;88.27;101394.84;107200;1238;111964;-69
2022/12/04 02:34:00;;;;;;;231.20;53.60;;;;;;;0.99;88.39;101390.44;107124;1244;139931;-69
2022/12/04 02:36:30;;;;;;;246.50;59.50;;;;;;;1.00;88.30;101395.38;107213;1238;106818;-69
2022/12/04 02:39:09;;;;;;;244.30;58.10;;;;;;;1.01;88.47;101391.86;107113;1234;139536;-69
2022/12/04 02:41:47;;;;;;;246.40;59.80;;;;;;;1.01;88.50;101386.40;107254;1253;99083;-69
2022/12/04 02:44:28;;;;;;;247.80;57.60;;;;;;;1.02;88.54;101386.59;107058;1244;139881;-69
2022/12/04 02:47:01;;;;;;;241.00;59.50;;;;;;;1.02;88.62;101382.02;107200;1242;99514;-69
2022/12/04 02:49:42;;;;;;;252.50;56.60;;;;;;;1.05;88.83;101390.65;107233;1241;107501;-69
2022/12/04 02:52:11;;;;;;;265.10;63.70;;;;;;;1.05;88.82;101392.06;107195;1238;98988;-69
2022/12/04 02:54:53;;;;;;;237.50;54.70;;;;;;;1.07;88.87;101397.17;107231;1238;99425;-69
2022/12/04 02:57:32;;;;;;;252.80;58.20;;;;;;;1.07;88.82;101392.78;107110;1245;138805;-69
2022/12/04 02:59:59;;;;;;;239.80;58.00;;;;;;;1.08;89.03;101392.45;107177;1243;99431;-69
2022/12/04 03:02:34;;;;;;;265.30;64.70;;;;;;;1.08;89.02;101393.15;106871;1245;139136;-69
2022/12/04 03:05:04;;;;;;;262.20;59.80;;;;;;;1.09;89.02;101394.21;106867;1243;98971;-70
2022/12/04 03:07:39;;;;;;;267.70;61.40;;;;;;;1.11;89.19;101392.99;106812;1257;98952;-70
2022/12/04 03:10:10;;;;;;;260.30;61.00;;;;;;;1.13;89.20;101390.89;106903;1249;112412;-69
2022/12/04 03:12:54;;;;;;;246.80;58.80;;;;;;;1.13;89.26;101389.83;106862;1250;99313;-69
2022/12/04 03:15:33;;;;;;;272.10;62.40;;;;;;;1.14;89.39;101386.32;106724;1235;142281;-70
2022/12/04 03:18:19;;;;;;;251.80;59.20;;;;;;;1.16;89.41;101387.21;106840;1236;99052;-70
2022/12/04 03:20:48;;;;;;;272.90;62.20;;;;;;;1.17;89.44;101382.30;106758;1246;138767;-70
2022/12/04 03:23:21;;;;;;;275.30;67.20;;;;;;;1.17;89.47;101380.89;106811;1249;112999;-70
2022/12/04 03:26:04;;;;;;;253.80;58.80;;;;;;;1.18;89.51;101376.84;106748;1237;139835;-70
2022/12/04 03:28:55;;;;;;;273.40;61.90;;;;;;;1.17;89.57;101379.30;106794;1238;108233;-70
2022/12/04 03:31:38;;;;;;;277.70;63.00;;;;;;;1.17;89.60;101379.48;106818;1244;98967;-71
2022/12/04 03:34:06;;;;;;;272.50;65.60;;;;;;;1.18;89.68;101375.95;106749;1244;138915;-70
2022/12/04 03:36:38;;;;;;;237.70;58.00;;;;;;;1.17;89.58;101375.61;106857;1249;112989;-70
2022/12/04 03:39:12;;;;;;;253.10;62.30;;;;;;;1.16;89.68;101367.85;106690;1236;141287;-70
2022/12/04 03:42:00;;;;;;;257.90;59.00;;;;;;;1.16;89.69;101367.85;106879;1245;108873;-70
2022/12/04 03:44:52;;;;;;;269.30;62.90;;;;;;;1.16;89.90;101365.92;106738;1253;139284;-70
2022/12/04 03:47:35;;;;;;;266.10;61.80;;;;;;;1.16;89.77;101370.84;107038;1237;98964;-69
2022/12/04 03:50:08;;;;;;;272.90;62.00;;;;;;;1.16;89.93;101369.79;106728;1242;140494;-70
2022/12/04 03:52:47;;;;;;;276.40;61.60;;;;;;;1.16;90.04;101370.49;106830;1251;99893;-70
2022/12/04 03:55:28;;;;;;;247.40;60.90;;;;;;;1.16;90.00;101370.49;106863;1247;108022;-70
2022/12/04 03:57:58;;;;;;;255.90;62.90;;;;;;;1.17;90.12;101373.66;106691;1243;140626;-71
2022/12/04 04:00:24;;;;;;;264.70;62.60;;;;;;;1.18;90.20;101373.33;106812;1238;99252;-70
2022/12/04 04:02:57;;;;;;;269.80;60.70;;;;;;;1.21;90.30;101369.64;106860;1235;139933;-70
2022/12/04 04:05:26;;;;;;;246.40;56.50;;;;;;;1.23;90.41;101370.36;106879;1239;99728;-70
2022/12/04 04:07:55;;;;;;;244.10;59.30;;;;;;;1.24;90.38;101375.13;107164;1240;141064;-70
2022/12/04 04:10:25;;;;;;;249.80;58.00;;;;;;;1.23;90.19;101378.46;107132;1240;98860;-70
2022/12/04 04:24:30;;;;;;;264.20;61.80;;;;;;;1.28;90.67;101367.40;107162;1249;98959;-71
2022/12/04 04:26:57;;;;;;;264.30;61.90;;;;;;;1.30;90.65;101359.49;107083;1239;139423;-71
2022/12/04 04:29:22;;;;;;;277.00;67.80;;;;;;;1.31;90.77;101360.02;107203;1254;111780;-70
2022/12/04 04:32:00;;;;;;;279.50;67.80;;;;;;;1.31;90.67;101365.31;107121;1242;138983;-71
2022/12/04 04:34:43;;;;;;;296.00;68.90;;;;;;;1.34;90.82;101366.20;107240;1238;107038;-71
2022/12/04 04:37:25;;;;;;;274.40;65.90;;;;;;;1.35;90.95;101362.69;107235;1248;98955;-71
2022/12/04 04:40:02;;;;;;;303.20;71.60;;;;;;;1.36;90.97;101359.88;107125;1236;143969;-71
2022/12/04 04:42:34;;;;;;;280.20;67.60;;;;;;;1.37;91.01;101354.06;107201;1251;112558;-71
2022/12/04 04:45:08;;;;;;;275.10;64.30;;;;;;;1.37;90.92;101353.89;107146;1248;140730;-70
2022/12/04 04:47:45;;;;;;;266.30;67.40;;;;;;;1.38;91.04;101352.14;107185;1238;107394;-71
2022/12/04 04:50:13;;;;;;;270.80;67.70;;;;;;;1.38;90.95;101352.14;107131;1243;139258;-70
2022/12/04 04:52:45;;;;;;;281.40;66.50;;;;;;;1.37;91.12;101356.90;107235;1244;99030;-71
2022/12/04 04:55:11;;;;;;;283.90;67.60;;;;;;;1.38;91.24;101358.13;107176;1249;113006;-70
2022/12/04 04:57:37;;;;;;;281.40;70.60;;;;;;;1.41;91.23;101355.15;107108;1262;139160;-70
2022/12/04 05:00:15;;;;;;;272.90;67.00;;;;;;;1.42;91.21;101359.21;107248;1246;98964;-71
2022/12/04 05:02:41;;;;;;;294.10;69.90;;;;;;;1.42;91.30;101364.66;107124;1247;138755;-70
2022/12/04 05:05:07;;;;;;;270.90;68.70;;;;;;;1.44;91.47;101371.02;107194;1246;98969;-71
2022/12/04 05:07:33;;;;;;;306.00;73.20;;;;;;;1.46;91.29;101369.08;107194;1254;98943;-71
2022/12/04 05:09:58;;;;;;;298.70;73.00;;;;;;;1.46;91.44;101370.67;107118;1241;138729;-70
2022/12/04 05:12:23;;;;;;;272.70;66.80;;;;;;;1.48;91.36;101371.21;107239;1233;99096;-71
2022/12/04 05:14:48;;;;;;;291.00;69.90;;;;;;;1.48;91.41;101372.98;107176;1235;139475;-71
2022/12/04 05:17:14;;;;;;;290.30;71.70;;;;;;;1.50;91.50;101368.77;107192;1249;99194;-70
2022/12/04 05:19:52;;;;;;;283.00;70.00;;;;;;;1.50;91.66;101367.17;107135;1238;139662;-71
2022/12/04 05:22:19;;;;;;;308.30;72.80;;;;;;;1.53;91.62;101368.07;107188;1236;98886;-71
2022/12/04 05:24:44;;;;;;;253.50;67.30;;;;;;;1.53;91.71;101364.90;107245;1239;99382;-70
2022/12/04 05:27:10;;;;;;;267.40;74.90;;;;;;;1.53;91.64;101358.55;107133;1235;139321;-71
2022/12/04 05:29:35;;;;;;;284.00;69.10;;;;;;;1.54;91.72;101357.86;107241;1253;99125;-71
2022/12/04 05:32:00;;;;;;;292.10;76.40;;;;;;;1.54;91.80;101356.63;107083;1235;140243;-71
2022/12/04 05:34:25;;;;;;;271.10;67.20;;;;;;;1.55;91.75;101357.34;107225;1241;99076;-70
2022/12/04 05:36:51;;;;;;;280.00;75.20;;;;;;;1.55;91.82;101358.39;107211;1234;99047;-71
2022/12/04 05:39:16;;;;;;;286.50;77.80;;;;;;;1.55;91.98;101359.63;107147;1252;138827;-70
2022/12/04 05:41:41;;;;;;;274.80;70.00;;;;;;;1.57;92.02;101354.54;107214;1249;112451;-70
2022/12/04 05:44:07;;;;;;;297.10;70.40;;;;;;;1.58;92.12;101355.59;107002;1244;139374;-70
2022/12/04 05:46:32;;;;;;;275.10;71.70;;;;;;;1.60;92.00;101356.83;107266;1241;97934;-70
2022/12/04 05:48:57;;;;;;;279.30;69.00;;;;;;;1.60;92.10;101358.23;107177;1237;99009;-70
2022/12/04 05:51:22;;;;;;;266.30;70.80;;;;;;;1.58;92.05;101361.75;107172;1244;139285;-70
2022/12/04 05:53:50;;;;;;;269.50;67.70;;;;;;;1.58;92.15;101360.16;107045;1239;99172;-69
2022/12/04 05:56:15;;;;;;;288.10;73.00;;;;;;;1.57;92.13;101361.22;106708;1238;139631;-69
2022/12/04 05:58:41;;;;;;;291.20;75.20;;;;;;;1.57;92.14;101362.10;106852;1243;100779;-70
2022/12/04 06:01:09;;;;;;;270.00;71.40;;;;;;;1.58;92.37;101362.11;106815;1235;99151;-69
2022/12/04 06:03:34;;;;;;;290.80;77.20;;;;;;;1.58;92.32;101367.21;106776;1245;140087;-70
2022/12/04 06:05:59;;;;;;;251.60;65.60;;;;;;;1.59;92.28;101365.28;106813;1236;99000;-70
2022/12/04 06:08:24;;;;;;;273.10;72.60;;;;;;;1.58;92.37;101366.86;106737;1240;139733;-70
2022/12/04 06:10:50;;;;;;;262.40;69.70;;;;;;;1.58;92.33;101367.39;106833;1235;99070;-70
2022/12/04 06:13:15;;;;;;;253.00;68.10;;;;;;;1.58;92.52;101368.63;106876;1239;98964;-70
2022/12/04 06:15:40;;;;;;;272.80;67.40;;;;;;;1.60;92.49;101365.98;106688;1236;138845;-69
2022/12/04 06:18:06;;;;;;;263.30;72.60;;;;;;;1.60;92.41;101368.45;106898;1238;99016;-70
2022/12/04 06:20:32;;;;;;;268.40;72.10;;;;;;;1.62;92.54;101367.41;106719;1243;138944;-70
2022/12/04 06:22:57;;;;;;;255.90;64.00;;;;;;;1.61;92.58;101367.41;106776;1244;99127;-69
2022/12/04 06:25:23;;;;;;;275.50;76.10;;;;;;;1.62;92.68;101367.59;106880;1237;99861;-69
2022/12/04 06:27:48;;;;;;;279.90;78.40;;;;;;;1.62;92.81;101369.35;106712;1248;138953;-69
2022/12/04 06:30:13;;;;;;;261.30;72.80;;;;;;;1.65;92.85;101367.07;106871;1237;99152;-70
2022/12/04 06:32:38;;;;;;;289.20;77.10;;;;;;;1.67;92.79;101367.79;106684;1238;138833;-70
2022/12/04 06:35:05;;;;;;;277.80;77.30;;;;;;;1.66;92.76;101375.36;106814;1243;99063;-70
2022/12/04 06:37:32;;;;;;;266.60;73.00;;;;;;;1.67;92.86;101375.36;106802;1244;98952;-70
2022/12/04 06:39:57;;;;;;;245.30;64.60;;;;;;;1.67;92.88;101380.46;106737;1237;139145;-70
2022/12/04 06:42:23;;;;;;;254.10;68.00;;;;;;;1.67;92.84;101376.95;106828;1243;99848;-70
2022/12/04 06:44:48;;;;;;;270.80;66.20;;;;;;;1.68;93.00;101378.36;106729;1238;141233;-70
2022/12/04 06:47:13;;;;;;;258.10;68.60;;;;;;;1.69;93.04;101375.89;106872;1235;98981;-70
2022/12/04 06:49:39;;;;;;;245.40;67.60;;;;;;;1.70;92.86;101377.30;106864;1250;99144;-70
2022/12/04 06:52:04;;;;;;;251.90;67.10;;;;;;;1.72;92.95;101377.49;106731;1236;153772;-69
2022/12/04 06:54:29;;;;;;;254.20;68.90;;;;;;;1.72;93.14;101379.09;106806;1238;99093;-70
2022/12/04 06:56:54;;;;;;;249.90;71.60;;;;;;;1.72;93.07;101382.27;106730;1238;138783;-69
2022/12/04 06:59:20;;;;;;;273.80;74.10;;;;;;;1.73;93.18;101377.86;106843;1236;99082;-69
2022/12/04 07:01:45;;;;;;;272.70;73.10;;;;;;;1.74;93.10;101378.56;106677;1235;140269;-69
2022/12/04 07:04:10;;;;;;;270.40;76.20;;;;;;;1.74;93.18;101376.09;106836;1237;99372;-70
2022/12/04 07:06:38;;;;;;;269.50;74.10;;;;;;;1.75;93.26;101373.98;106684;1238;98988;-70
2022/12/04 07:09:08;;;;;;;249.50;71.10;;;;;;;1.77;93.33;101365.89;106808;1249;138880;-69
2022/12/04 07:11:34;;;;;;;268.80;68.70;;;;;;;1.78;93.14;101371.54;106706;1235;112690;-70
2022/12/04 07:14:00;;;;;;;257.00;62.30;;;;;;;1.76;93.38;101370.83;106716;1237;139448;-70
2022/12/04 07:16:27;;;;;;;248.40;63.60;;;;;;;1.76;93.22;101376.80;107288;1237;98977;-70
2022/12/04 07:18:53;;;;;;;245.40;64.70;;;;;;;1.77;93.56;101377.52;107211;1245;99390;-70
2022/12/04 07:21:21;;;;;;;234.80;62.90;;;;;;;1.79;93.38;101379.82;107172;1237;138983;-70
2022/12/04 07:23:51;;;;;;;243.50;64.40;;;;;;;1.81;93.60;101378.24;107270;1237;98991;-70
2022/12/04 07:26:17;;;;;;;246.50;66.50;;;;;;;1.81;93.43;101380.01;107351;1253;139546;-69
2022/12/04 07:28:44;;;;;;;227.80;62.10;;;;;;;1.80;93.39;101381.94;107298;1252;98957;-69
2022/12/04 07:31:11;;;;;;;239.10;63.70;;;;;;;1.80;93.59;101383.70;107287;1236;99427;-70
2022/12/04 07:33:37;;;;;;;216.80;59.00;;;;;;;1.80;93.61;101385.98;107131;1253;138888;-70
2022/12/04 07:36:05;;;;;;;233.90;61.60;;;;;;;1.80;93.55;101385.64;107403;1242;99554;-70
2022/12/04 07:38:32;;;;;;;238.50;65.40;;;;;;;1.82;93.70;101380.19;107159;1229;139302;-70
2022/12/04 07:40:58;;;;;;;229.70;61.90;;;;;;;1.83;93.61;101380.02;107243;1253;98986;-69
2022/12/04 07:43:25;;;;;;;237.90;60.80;;;;;;;1.85;93.84;101382.31;107346;1233;99138;-69
2022/12/04 07:45:50;;;;;;;224.50;58.90;;;;;;;1.86;93.77;101383.37;107251;1235;138705;-69
2022/12/04 07:48:16;;;;;;;232.30;61.00;;;;;;;1.84;93.60;101388.48;107293;1235;99017;-69
2022/12/04 07:50:41;;;;;;;216.90;59.30;;;;;;;1.85;93.80;101396.59;107238;1237;138835;-69
2022/12/04 07:53:06;;;;;;;225.30;59.80;;;;;;;1.86;93.94;101398.35;107350;1244;99418;-70
2022/12/04 07:55:31;;;;;;;236.20;62.80;;;;;;;1.89;93.87;101402.95;107252;1244;100300;-70
2022/12/04 07:57:57;;;;;;;221.70;61.20;;;;;;;1.92;94.13;101399.27;107179;1247;139501;-72
2022/12/04 08:00:22;;;;;;;254.20;65.40;;;;;;;1.93;93.81;101402.96;107221;1236;99218;-70
2022/12/04 08:02:48;;;;;;;216.80;60.90;;;;;;;1.96;93.94;101398.74;107184;1236;140580;-70
2022/12/04 08:05:14;;;;;;;227.80;60.00;;;;;;;1.99;93.87;101389.77;107336;1244;99416;-69
2022/12/04 08:07:39;;;;;;;225.60;62.60;;;;;;;2.00;93.94;101387.48;107361;1236;98969;-69
2022/12/04 08:10:05;;;;;;;228.40;60.50;;;;;;;2.02;94.10;101388.02;107422;1245;98974;-69
2022/12/04 08:12:32;;;;;;;228.00;63.50;;;;;;;2.03;94.13;101384.84;107245;1230;108309;-70
2022/12/04 08:14:57;;;;;;;236.20;65.70;;;;;;;2.05;94.13;101379.91;108702;1244;139387;-70
2022/12/04 08:17:23;;;;;;;228.50;63.50;;;;;;;2.10;94.30;101378.88;108749;1239;96829;-70
2022/12/04 08:19:48;;;;;;;219.10;61.60;;;;;;;2.13;94.44;101376.41;107265;1246;140449;-71
2022/12/04 08:22:13;;;;;;;229.00;61.70;;;;;;;2.14;94.22;101376.94;107240;1245;99025;-70
2022/12/04 08:24:39;;;;;;;233.60;63.20;;;;;;;2.15;94.16;101376.42;107369;1236;98964;-70
2022/12/04 08:27:04;;;;;;;223.60;59.70;;;;;;;2.20;94.37;101371.31;107157;1244;138847;-68
2022/12/04 08:29:29;;;;;;;223.10;62.40;;;;;;;2.24;94.39;101369.56;107331;1244;98977;-70
2022/12/04 08:31:54;;;;;;;224.40;58.90;;;;;;;2.30;94.42;101372.58;107161;1244;139848;-70
2022/12/04 08:34:20;;;;;;;214.90;57.50;;;;;;;2.35;94.62;101374.16;107266;1245;98967;-69
2022/12/04 08:36:45;;;;;;;226.80;60.20;;;;;;;2.37;94.61;101374.35;107215;1239;99109;-69
2022/12/04 08:39:11;;;;;;;211.60;61.00;;;;;;;2.38;94.27;101378.06;107088;1236;139000;-70
2022/12/04 08:41:37;;;;;;;212.10;61.50;;;;;;;2.38;94.49;101377.53;107245;1252;99074;-69
2022/12/04 08:44:02;;;;;;;213.30;58.60;;;;;;;2.37;94.49;101377.17;107210;1244;139577;-69
2022/12/04 08:46:28;;;;;;;209.70;56.20;;;;;;;2.42;94.68;101375.42;107293;1236;99061;-70
2022/12/04 08:48:54;;;;;;;222.20;62.60;;;;;;;2.43;94.57;101374.71;107345;1245;99551;-70
2022/12/04 08:51:23;;;;;;;212.30;60.30;;;;;;;2.44;94.63;101378.42;107115;1254;140858;-71
2022/12/04 08:53:54;;;;;;;218.70;57.70;;;;;;;2.46;94.68;101383.19;107378;1236;112449;-70
2022/12/04 08:56:19;;;;;;;194.90;59.10;;;;;;;2.44;94.82;101387.77;107592;1237;139272;-72
2022/12/04 08:58:44;;;;;;;200.40;56.60;;;;;;;2.44;94.71;101390.59;107193;1246;99202;-71
2022/12/04 09:01:12;;;;;;;220.20;58.90;;;;;;;2.48;94.88;101385.30;107276;1235;99014;-71
2022/12/04 09:03:37;;;;;;;189.90;55.90;;;;;;;2.51;95.01;101387.42;107086;1248;139940;-70
2022/12/04 09:06:05;;;;;;;199.80;59.70;;;;;;;2.52;94.94;101386.90;107188;1242;98946;-71
2022/12/04 09:08:30;;;;;;;222.00;60.70;;;;;;;2.53;95.00;101386.20;107063;1242;139202;-71
2022/12/04 09:11:05;;;;;;;207.80;60.40;;;;;;;2.57;95.02;101389.73;107245;1239;98970;-71
2022/12/04 09:13:31;;;;;;;215.20;63.80;;;;;;;2.62;95.09;101385.29;107162;1245;112459;-71
2022/12/04 09:15:57;;;;;;;189.10;55.60;;;;;;;2.65;95.12;101389.88;107091;1248;138804;-69
2022/12/04 09:18:22;;;;;;;174.20;53.50;;;;;;;2.65;95.07;101397.64;107232;1234;99229;-70
2022/12/04 09:20:59;;;;;;;197.70;58.90;;;;;;;2.62;94.88;101401.17;107119;1242;139526;-69
2022/12/04 09:23:25;;;;;;;206.60;61.10;;;;;;;2.64;95.05;101409.81;107202;1229;111883;-70
2022/12/04 09:25:51;;;;;;;196.90;58.30;;;;;;;2.68;95.33;101408.77;107055;1236;139019;-69
2022/12/04 09:28:16;;;;;;;186.90;61.70;;;;;;;2.69;95.18;101406.30;107201;1245;99019;-69
2022/12/04 09:30:41;;;;;;;191.50;60.60;;;;;;;2.70;95.30;101406.46;107186;1245;99057;-69
2022/12/04 09:33:06;;;;;;;183.50;59.30;;;;;;;2.72;95.22;101403.65;107154;1245;138708;-68
2022/12/04 09:35:33;;;;;;;194.10;60.10;;;;;;;2.72;95.29;101397.65;107182;1252;107611;-69
2022/12/04 09:37:59;;;;;;;192.40;60.40;;;;;;;2.75;95.51;101399.59;107076;1245;139252;-69
2022/12/04 09:40:36;;;;;;;217.70;70.20;;;;;;;2.77;95.24;101394.30;107296;1253;98967;-69
2022/12/04 09:43:12;;;;;;;231.20;71.70;;;;;;;2.81;95.31;101393.42;107200;1236;111386;-70
2022/12/04 09:45:52;;;;;;;207.70;64.30;;;;;;;2.81;95.36;101394.30;107111;1237;139464;-69
2022/12/04 09:48:20;;;;;;;206.70;65.60;;;;;;;2.81;95.36;101387.06;107225;1236;106910;-69
2022/12/04 09:50:48;;;;;;;189.80;61.50;;;;;;;2.81;95.45;101380.36;107083;1237;139700;-69
2022/12/04 09:53:26;;;;;;;197.00;63.50;;;;;;;2.80;95.53;101378.59;107313;1233;99816;-70
2022/12/04 09:56:00;;;;;;;203.70;63.40;;;;;;;2.81;95.55;101374.88;107178;1244;139568;-71
2022/12/04 09:58:39;;;;;;;197.60;61.40;;;;;;;2.81;95.67;101371.36;107436;1244;100587;-70
2022/12/04 10:01:13;;;;;;;210.20;62.10;;;;;;;2.83;95.60;101365.18;107406;1230;108003;-69
2022/12/04 10:03:38;;;;;;;191.80;58.50;;;;;;;2.87;95.59;101366.23;107247;1241;140686;-69
2022/12/04 10:06:06;;;;;;;189.70;55.30;;;;;;;2.89;95.63;101368.00;107326;1244;99007;-70
2022/12/04 10:08:39;;;;;;;172.40;56.30;;;;;;;2.88;95.58;101366.06;107282;1233;138704;-70
2022/12/04 10:11:13;;;;;;;184.80;60.40;;;;;;;2.86;95.57;101365.36;107357;1237;99186;-70
2022/12/04 10:14:08;;;;;;;181.80;58.10;;;;;;;2.86;95.73;101364.12;107336;1234;108078;-70
2022/12/04 10:16:45;;;;;;;191.30;57.10;;;;;;;2.85;95.87;101363.41;107415;1234;99060;-70
2022/12/04 10:19:36;;;;;;;207.40;68.60;;;;;;;2.86;95.95;101360.59;107417;1230;98984;-69
2022/12/04 10:22:17;;;;;;;176.20;60.20;;;;;;;2.84;95.91;101364.47;107343;1243;140645;-69
2022/12/04 10:24:48;;;;;;;180.50;59.60;;;;;;;2.83;95.82;101365.52;107470;1243;99463;-70
2022/12/04 10:27:19;;;;;;;;;;;;;;;2.82;96.07;101361.65;107301;1235;138659;-70
2022/12/04 10:29:48;;;;;;;;;;;;;;;2.85;96.24;101359.17;107449;1240;99490;-70
2022/12/04 10:32:19;;;;;;;191.80;63.80;;;;;;;2.89;96.17;101356.70;107401;1242;124827;-71
2022/12/04 10:34:47;;;;;;;194.10;60.90;;;;;;;2.91;96.10;101356.52;107523;1243;112178;-70
2022/12/04 10:37:14;;;;;;;195.90;61.60;;;;;;;2.92;96.26;101353.35;107445;1237;101096;-70
2022/12/04 10:39:53;;;;;;;186.20;56.40;;;;;;;2.95;96.17;101350.34;107277;1253;139466;-71
2022/12/04 10:42:52;;;;;;;176.20;58.40;;;;;;;2.96;96.20;101346.82;107401;1230;99095;-71
2022/12/04 10:45:20;;;;;;;183.80;56.80;;;;;;;2.96;96.14;101346.64;107206;1249;139558;-73
2022/12/04 10:47:48;;;;;;;176.10;54.70;;;;;;;2.97;96.16;101342.23;107449;1244;111535;-71
2022/12/04 10:50:17;;;;;;;186.30;57.40;;;;;;;2.99;96.20;101339.40;107332;1244;139708;-70
2022/12/04 10:52:43;;;;;;;198.60;56.50;;;;;;;2.97;96.23;101335.86;107453;1229;107393;-70
2022/12/04 10:55:09;;;;;;;172.90;55.70;;;;;;;3.00;96.35;101334.98;107431;1231;99191;-73
2022/12/04 10:57:41;;;;;;;181.60;55.90;;;;;;;3.00;96.34;101333.92;107386;1237;138947;-71
2022/12/04 11:00:23;;;;;;;184.20;56.80;;;;;;;3.01;96.46;101327.04;107372;1238;99477;-70
2022/12/04 11:02:50;;;;;;;187.50;59.20;;;;;;;3.04;96.43;101331.27;107302;1230;138749;-72
2022/12/04 11:05:34;;;;;;;179.70;61.20;;;;;;;3.04;96.44;101327.38;107349;1244;99046;-71
2022/12/04 11:08:03;;;;;;;195.60;60.90;;;;;;;3.09;96.60;101328.61;107272;1227;138935;-70
2022/12/04 11:10:42;;;;;;;176.40;57.60;;;;;;;3.10;96.68;101328.79;107405;1227;111004;-70
2022/12/04 11:13:14;;;;;;;207.50;63.20;;;;;;;3.10;96.31;101327.55;107419;1244;98994;-70
2022/12/04 11:15:45;;;;;;;191.10;61.10;;;;;;;3.11;96.50;101326.48;107222;1236;139022;-72
2022/12/04 11:18:31;;;;;;;;;;;;;;;3.11;96.54;101322.42;107355;1244;98955;-68
2022/12/04 11:21:03;;;;;;;175.40;54.50;;;;;;;3.10;96.62;101319.78;107232;1237;124890;-69